Time;durP1;ratioP1;P1;durP2;ratioP2;P2;SDS_P1;SDS_P2;PMS_P1;PMS_P2;Temp;Humidity;BMP_temperature;BMP_pressure;BME280_temperature;BME280_humidity;BME280_pressure;Samples;Min_cycle;Max_cycle;Signal;HPM_P1;HPM_P2
2022/03/27 00:02:08;;;;;;;0.80;0.80;;;;;;;-3.70;74.11;96965.63;4918397;29;20094;-84
2022/03/27 00:04:36;;;;;;;0.75;0.75;;;;;;;-3.71;73.58;96956.13;4917884;29;20136;-84
2022/03/27 00:07:03;;;;;;;0.60;0.60;;;;;;;-3.70;72.94;96976.19;4916912;29;20044;-83
2022/03/27 00:09:30;;;;;;;0.50;0.50;;;;;;;-3.73;72.92;96977.38;4918085;29;20048;-84
2022/03/27 00:11:57;;;;;;;0.60;0.60;;;;;;;-3.76;72.08;96966.47;4901496;29;20115;-84
2022/03/27 00:14:25;;;;;;;0.60;0.60;;;;;;;-3.82;71.94;96988.34;4918042;29;20048;-84
2022/03/27 00:16:52;;;;;;;0.65;0.65;;;;;;;-3.81;71.91;96977.59;4901093;29;20511;-84
2022/03/27 00:19:20;;;;;;;0.50;0.50;;;;;;;-3.80;71.77;96973.13;4928647;29;20348;-84
2022/03/27 00:21:47;;;;;;;0.65;0.65;;;;;;;-3.78;71.19;96974.56;4918138;29;20056;-84
2022/03/27 00:24:15;;;;;;;0.60;0.60;;;;;;;-3.77;71.25;96975.38;4917661;29;20515;-84
2022/03/27 00:26:42;;;;;;;0.90;0.90;;;;;;;-3.74;70.75;96990.78;4918236;29;20051;-83
2022/03/27 00:29:10;;;;;;;0.57;0.57;;;;;;;-3.75;70.87;96978.59;4917941;29;20068;-84
2022/03/27 00:31:38;;;;;;;0.70;0.70;;;;;;;-3.78;71.17;96968.47;4917987;29;20056;-84
2022/03/27 00:34:06;;;;;;;0.80;0.80;;;;;;;-3.72;70.44;96991.41;4917893;29;20135;-84
2022/03/27 00:36:33;;;;;;;0.77;0.77;;;;;;;-3.75;70.41;96989.16;4918139;29;20055;-84
2022/03/27 00:39:02;;;;;;;0.50;0.50;;;;;;;-3.75;71.13;96990.00;4936757;29;20047;-85
2022/03/27 00:41:30;;;;;;;0.57;0.57;;;;;;;-3.77;71.11;96993.84;4945553;29;20078;-84
2022/03/27 00:43:57;;;;;;;0.60;0.60;;;;;;;-3.78;71.20;96998.28;4945113;29;20054;-84
2022/03/27 00:46:24;;;;;;;0.60;0.60;;;;;;;-3.85;70.97;96980.84;4936347;29;20048;-85
2022/03/27 00:48:51;;;;;;;0.60;0.60;;;;;;;-3.82;71.01;96981.25;4921606;29;20059;-84
2022/03/27 00:51:19;;;;;;;0.80;0.80;;;;;;;-3.86;71.76;96989.78;4937937;29;20062;-85
2022/03/27 00:53:46;;;;;;;0.70;0.70;;;;;;;-3.86;71.85;97000.31;4938028;29;20272;-85
2022/03/27 00:56:14;;;;;;;0.75;0.75;;;;;;;-3.90;72.17;97002.53;4936670;29;20426;-85
2022/03/27 00:58:41;;;;;;;0.60;0.60;;;;;;;-3.93;72.40;96998.47;4936286;29;20081;-84
2022/03/27 01:01:15;;;;;;;0.70;0.70;;;;;;;-3.92;72.64;97012.47;4936701;29;20084;-85
2022/03/27 01:03:44;;;;;;;0.52;0.52;;;;;;;-3.92;72.54;96996.66;4935540;29;20040;-84
2022/03/27 01:06:27;;;;;;;0.47;0.47;;;;;;;-3.94;72.99;96996.84;4918763;29;20050;-84
2022/03/27 01:11:40;;;;;;;0.60;0.60;;;;;;;-4.01;73.87;96990.75;4935582;29;20079;-85
2022/03/27 01:14:09;;;;;;;0.70;0.70;;;;;;;-4.02;73.92;97004.97;4936974;29;20047;-84
2022/03/27 01:16:45;;;;;;;0.55;0.55;;;;;;;-3.98;74.28;97010.63;4939065;29;20047;-85
2022/03/27 01:19:15;;;;;;;0.50;0.50;;;;;;;-3.96;74.54;97003.34;4935406;29;20515;-85
2022/03/27 01:21:44;;;;;;;0.50;0.50;;;;;;;-4.12;74.69;96985.28;4935506;29;20056;-85
2022/03/27 01:24:16;;;;;;;0.75;0.75;;;;;;;-3.98;74.96;96994.81;4936389;29;20139;-85
2022/03/27 01:26:44;;;;;;;0.70;0.70;;;;;;;-3.99;75.24;97019.56;4939142;29;20059;-85
2022/03/27 01:29:11;;;;;;;0.60;0.60;;;;;;;-4.04;75.65;97019.34;4926383;29;20055;-85
2022/03/27 01:31:39;;;;;;;0.43;0.43;;;;;;;-4.04;76.04;97035.97;4942282;29;20462;-84
2022/03/27 01:34:07;;;;;;;0.50;0.50;;;;;;;-4.07;76.33;97027.66;4940605;29;20051;-82
2022/03/27 01:36:35;;;;;;;0.70;0.70;;;;;;;-4.13;76.17;97018.72;4935184;29;20090;-83
2022/03/27 01:39:07;;;;;;;0.60;0.60;;;;;;;-4.24;76.49;97020.09;4935458;29;20051;-84
2022/03/27 01:41:35;;;;;;;0.70;0.70;;;;;;;-4.13;76.56;97016.06;4924606;29;20055;-85
2022/03/27 01:44:05;;;;;;;0.77;0.77;;;;;;;-4.12;76.80;97022.19;4909774;29;20076;-84
2022/03/27 01:46:39;;;;;;;0.45;0.45;;;;;;;-4.13;76.60;97029.25;4925732;29;20044;-85
2022/03/27 01:49:08;;;;;;;0.60;0.60;;;;;;;-4.24;76.31;97030.66;4926152;29;20134;-84
2022/03/27 01:51:36;;;;;;;0.70;0.70;;;;;;;-4.17;76.56;97035.94;4890422;29;20079;-83
2022/03/27 01:54:04;;;;;;;0.80;0.80;;;;;;;-4.14;76.71;97038.97;4919548;29;20111;-84
2022/03/27 01:56:32;;;;;;;0.70;0.70;;;;;;;-4.16;75.90;97043.63;4894635;29;20050;-83
2022/03/27 01:59:00;;;;;;;0.60;0.60;;;;;;;-4.21;76.31;97038.16;4893761;29;20086;-83
2022/03/27 02:01:29;;;;;;;0.70;0.70;;;;;;;-4.18;76.21;97050.09;4906541;29;20054;-84
2022/03/27 02:03:56;;;;;;;0.60;0.60;;;;;;;-4.20;76.32;97026.63;4923070;29;20139;-84
2022/03/27 02:06:26;;;;;;;0.80;0.80;;;;;;;-4.17;76.64;97043.84;4933805;29;20051;-84
2022/03/27 02:08:53;;;;;;;0.70;0.70;;;;;;;-4.18;76.83;97037.78;4910779;29;20048;-84
2022/03/27 02:11:21;;;;;;;0.70;0.70;;;;;;;-4.18;76.48;97052.75;4938457;29;20044;-83
2022/03/27 02:13:48;;;;;;;0.50;0.50;;;;;;;-4.17;75.98;97057.03;4939819;29;20047;-84
2022/03/27 02:16:15;;;;;;;0.60;0.60;;;;;;;-4.21;76.01;97053.16;4935285;29;20073;-85
2022/03/27 02:18:42;;;;;;;0.52;0.52;;;;;;;-4.24;76.09;97064.09;4935902;29;20047;-86
2022/03/27 02:21:14;;;;;;;0.60;0.60;;;;;;;-4.18;76.26;97060.66;4918648;29;20052;-85
2022/03/27 02:23:43;;;;;;;0.70;0.70;;;;;;;-4.20;76.28;97046.88;4935533;29;20056;-84
2022/03/27 02:26:10;;;;;;;0.65;0.65;;;;;;;-4.29;76.32;97048.88;4925403;29;20135;-83
2022/03/27 02:28:40;;;;;;;0.73;0.73;;;;;;;-4.30;76.46;97060.44;4943068;29;20048;-84
2022/03/27 02:31:13;;;;;;;0.70;0.70;;;;;;;-4.38;76.40;97069.31;4942340;29;20058;-84
2022/03/27 02:33:40;;;;;;;0.60;0.60;;;;;;;-4.39;76.47;97066.88;4908575;29;20059;-84
2022/03/27 02:36:08;;;;;;;0.70;0.70;;;;;;;-4.33;76.71;97073.16;4918990;29;20091;-84
2022/03/27 02:38:36;;;;;;;0.70;0.70;;;;;;;-4.39;76.83;97072.13;4900686;29;20056;-85
2022/03/27 02:41:05;;;;;;;0.60;0.60;;;;;;;-4.37;76.22;97097.25;4940415;29;20062;-85
2022/03/27 02:43:38;;;;;;;0.63;0.63;;;;;;;-4.39;76.43;97088.75;4902648;29;20056;-83
2022/03/27 02:46:07;;;;;;;0.80;0.80;;;;;;;-4.36;75.91;97096.25;4921735;29;20130;-86
2022/03/27 02:48:35;;;;;;;0.63;0.63;;;;;;;-4.43;75.99;97098.06;4910257;29;20087;-85
2022/03/27 02:51:02;;;;;;;0.60;0.60;;;;;;;-4.41;76.13;97089.94;4935900;29;20568;-85
2022/03/27 02:53:29;;;;;;;0.70;0.70;;;;;;;-4.46;76.05;97090.53;4931286;29;20048;-82
2022/03/27 02:55:56;;;;;;;0.50;0.50;;;;;;;-4.45;76.20;97099.25;4929578;29;20142;-84
2022/03/27 02:58:27;;;;;;;0.77;0.77;;;;;;;-4.44;76.09;97106.94;4911535;29;20044;-84
2022/03/27 03:00:54;;;;;;;0.70;0.70;;;;;;;-4.48;75.79;97111.00;4909417;29;20066;-84
2022/03/27 03:03:22;;;;;;;0.70;0.70;;;;;;;-4.55;76.13;97096.19;4914653;29;20518;-85
2022/03/27 03:05:51;;;;;;;0.70;0.70;;;;;;;-4.49;76.01;97104.09;4934827;29;20059;-83
2022/03/27 03:08:18;;;;;;;0.70;0.70;;;;;;;-4.48;76.08;97125.97;4927808;29;20050;-83
2022/03/27 03:10:45;;;;;;;0.70;0.70;;;;;;;-4.52;76.22;97108.94;4931130;29;20059;-84
2022/03/27 03:13:13;;;;;;;0.77;0.77;;;;;;;-4.51;76.41;97132.44;4929192;29;20054;-84
2022/03/27 03:15:42;;;;;;;0.63;0.63;;;;;;;-4.51;76.21;97124.53;4920244;29;20145;-85
2022/03/27 03:18:11;;;;;;;0.75;0.75;;;;;;;-4.48;76.28;97126.81;4922836;29;20094;-86
2022/03/27 03:20:39;;;;;;;0.70;0.70;;;;;;;-4.57;75.55;97120.06;4938217;29;20052;-85
2022/03/27 03:23:08;;;;;;;0.68;0.68;;;;;;;-4.64;75.37;97127.09;4938649;29;20095;-85
2022/03/27 03:25:35;;;;;;;0.77;0.77;;;;;;;-4.65;75.46;97144.72;4938592;29;20059;-86
2022/03/27 03:28:21;;;;;;;0.65;0.65;;;;;;;-4.65;74.92;97151.81;4940280;29;20056;-85
2022/03/27 03:30:48;;;;;;;0.70;0.70;;;;;;;-4.70;73.61;97148.94;4940070;29;20048;-84
2022/03/27 03:33:15;;;;;;;0.60;0.60;;;;;;;-4.73;72.90;97154.59;4923912;29;20509;-85
2022/03/27 03:35:43;;;;;;;0.80;0.80;;;;;;;-4.83;72.28;97165.47;4941285;29;20510;-85
2022/03/27 03:38:10;;;;;;;0.80;0.80;;;;;;;-4.80;71.39;97175.59;4948630;28;20594;-85
2022/03/27 03:40:37;;;;;;;0.70;0.70;;;;;;;-4.76;70.02;97179.47;4961302;29;20099;-84
2022/03/27 03:43:08;;;;;;;0.68;0.68;;;;;;;-4.77;69.82;97190.19;4961105;29;20031;-85
2022/03/27 03:45:35;;;;;;;0.90;0.90;;;;;;;-4.83;69.41;97173.34;4944753;29;20047;-85
2022/03/27 03:48:06;;;;;;;0.95;0.95;;;;;;;-4.73;68.43;97191.44;4945703;29;20056;-86
2022/03/27 03:50:35;;;;;;;0.70;0.70;;;;;;;-4.79;68.31;97191.19;4938084;29;20044;-85
2022/03/27 03:53:03;;;;;;;0.52;0.52;;;;;;;-4.63;67.93;97197.19;4938411;29;20408;-86
2022/03/27 03:55:31;;;;;;;0.50;0.50;;;;;;;-4.63;65.88;97197.19;4921545;29;20531;-88
2022/03/27 03:57:58;;;;;;;0.73;0.73;;;;;;;-4.53;65.54;97210.81;4944884;29;20074;-85
2022/03/27 04:00:25;;;;;;;0.68;0.68;;;;;;;-4.55;64.15;97204.94;4922013;29;20480;-85
2022/03/27 04:02:53;;;;;;;0.90;0.90;;;;;;;-4.45;63.80;97209.84;4938328;29;20048;-85
2022/03/27 04:05:21;;;;;;;0.80;0.80;;;;;;;-4.34;63.77;97222.47;4921250;29;20143;-86
2022/03/27 04:07:48;;;;;;;0.70;0.70;;;;;;;-4.28;63.52;97215.63;4941144;29;20173;-85
2022/03/27 04:10:15;;;;;;;0.88;0.88;;;;;;;-4.15;63.50;97213.06;4920862;29;20491;-84
2022/03/27 04:12:42;;;;;;;0.80;0.80;;;;;;;-4.07;63.46;97231.34;4938234;29;20106;-84
2022/03/27 04:15:09;;;;;;;0.80;0.80;;;;;;;-3.98;64.33;97248.63;4920519;29;20099;-86
2022/03/27 04:17:48;;;;;;;0.75;0.75;;;;;;;-4.10;65.01;97249.34;4920994;29;20073;-86
2022/03/27 04:20:16;;;;;;;0.63;0.63;;;;;;;-4.25;66.35;97260.84;4937843;29;20052;-86
2022/03/27 04:22:44;;;;;;;0.60;0.60;;;;;;;-4.66;70.59;97237.03;4938449;29;20048;-86
2022/03/27 04:25:12;;;;;;;0.73;0.73;;;;;;;-5.10;75.67;97273.09;4921411;29;20103;-85
2022/03/27 04:27:40;;;;;;;0.75;0.75;;;;;;;-5.21;76.61;97262.28;4922991;29;20050;-86
2022/03/27 04:30:10;;;;;;;0.70;0.70;;;;;;;-5.27;76.37;97269.88;4941972;29;20075;-87
2022/03/27 04:32:39;;;;;;;0.90;0.90;;;;;;;-5.09;75.98;97294.94;4933314;29;20028;-86
2022/03/27 04:35:08;;;;;;;0.73;0.73;;;;;;;-5.03;74.93;97281.88;4941351;29;20126;-85
2022/03/27 04:37:42;;;;;;;0.80;0.80;;;;;;;-5.01;73.88;97290.41;4940072;29;20051;-85
2022/03/27 04:40:10;;;;;;;0.95;0.95;;;;;;;-4.80;73.04;97325.63;4924366;29;20047;-85
2022/03/27 04:42:37;;;;;;;0.77;0.77;;;;;;;-4.80;70.85;97312.47;4957943;29;20056;-84
2022/03/27 04:45:05;;;;;;;0.98;0.98;;;;;;;-4.75;69.81;97330.31;4960719;28;20039;-86
2022/03/27 04:47:32;;;;;;;0.80;0.80;;;;;;;-4.77;67.50;97321.78;4944243;29;20031;-86
2022/03/27 04:50:00;;;;;;;0.70;0.70;;;;;;;-4.73;66.11;97296.72;4960590;28;20039;-85
2022/03/27 04:52:27;;;;;;;0.73;0.73;;;;;;;-4.80;65.95;97326.41;4914695;29;20118;-86
2022/03/27 04:54:54;;;;;;;0.73;0.73;;;;;;;-4.83;65.75;97337.34;4919301;29;20058;-86
2022/03/27 04:57:21;;;;;;;0.77;0.77;;;;;;;-4.74;65.56;97329.31;4936747;29;20066;-86
2022/03/27 04:59:49;;;;;;;0.75;0.75;;;;;;;-4.61;65.78;97355.75;4898944;29;20052;-87
2022/03/27 05:02:17;;;;;;;0.70;0.70;;;;;;;-4.67;66.19;97328.38;4900506;29;20467;-86
2022/03/27 05:04:57;;;;;;;0.98;0.98;;;;;;;-4.60;66.71;97341.59;4930136;29;20055;-86
2022/03/27 05:07:29;;;;;;;0.60;0.60;;;;;;;-4.69;66.62;97350.63;4873019;29;20058;-86
2022/03/27 05:09:56;;;;;;;0.90;0.90;;;;;;;-4.67;67.13;97356.50;4918968;29;20056;-86
2022/03/27 05:12:23;;;;;;;0.77;0.77;;;;;;;-4.52;66.61;97375.69;4904413;29;20066;-87
2022/03/27 05:14:51;;;;;;;0.80;0.80;;;;;;;-4.45;65.31;97375.75;4886934;29;20453;-86
2022/03/27 05:17:18;;;;;;;0.80;0.80;;;;;;;-4.41;63.94;97359.38;4922656;29;20052;-86
2022/03/27 05:19:50;;;;;;;0.88;0.88;;;;;;;-4.44;61.79;97370.28;4922288;29;20052;-85
2022/03/27 05:22:17;;;;;;;0.70;0.70;;;;;;;-4.37;61.83;97376.44;4903370;29;20152;-85
2022/03/27 05:24:47;;;;;;;0.90;0.90;;;;;;;-4.42;60.57;97383.28;4921438;29;20067;-85
2022/03/27 05:27:17;;;;;;;0.90;0.90;;;;;;;-4.40;58.80;97358.38;4912370;29;20052;-86
2022/03/27 05:29:45;;;;;;;0.97;0.97;;;;;;;-4.31;58.97;97377.50;4560631;29;10000203;-83
2022/03/27 05:32:14;;;;;;;1.05;1.05;;;;;;;-4.27;58.85;97375.31;4919902;29;20104;-85
2022/03/27 05:34:42;;;;;;;0.80;0.80;;;;;;;-4.02;57.62;97397.59;4928159;29;20056;-85
2022/03/27 05:37:09;;;;;;;0.98;0.98;;;;;;;-4.09;58.01;97412.53;4912053;29;20107;-87
2022/03/27 05:39:36;;;;;;;0.90;0.90;;;;;;;-4.06;58.21;97409.50;4925363;29;20563;-86
2022/03/27 05:42:03;;;;;;;0.80;0.80;;;;;;;-4.10;58.46;97420.63;4927690;29;20043;-85
2022/03/27 05:44:31;;;;;;;0.90;0.90;;;;;;;-4.45;59.65;97418.72;4917527;29;20127;-88
2022/03/27 05:46:59;;;;;;;0.93;0.93;;;;;;;-4.51;61.44;97426.53;4930419;29;20139;-85
2022/03/27 05:49:27;;;;;;;0.85;0.85;;;;;;;-4.34;63.24;97432.38;4934888;29;20071;-87
2022/03/27 05:51:54;;;;;;;0.90;0.90;;;;;;;-4.23;64.67;97439.75;4935496;29;20063;-86
2022/03/27 05:54:21;;;;;;;0.80;0.80;;;;;;;-4.01;65.00;97451.13;4899512;29;20070;-86
2022/03/27 05:56:49;;;;;;;0.73;0.73;;;;;;;-3.97;65.70;97444.47;4902695;29;20048;-88
2022/03/27 05:59:42;;;;;;;0.80;0.80;;;;;;;-4.12;66.27;97444.53;4874843;29;20080;-88
2022/03/27 06:02:13;;;;;;;0.82;0.82;;;;;;;-4.55;67.70;97451.63;4904749;29;20052;-84
2022/03/27 06:04:42;;;;;;;1.00;1.00;;;;;;;-4.67;69.73;97456.53;4898681;29;20091;-89
2022/03/27 06:07:09;;;;;;;0.80;0.80;;;;;;;-4.73;71.01;97481.00;4899446;29;20728;-88
2022/03/27 06:09:37;;;;;;;0.75;0.75;;;;;;;-4.53;72.38;97479.41;4901075;29;20465;-89
2022/03/27 06:12:05;;;;;;;0.70;0.70;;;;;;;-4.32;72.10;97473.34;4872669;29;20535;-88
2022/03/27 06:14:32;;;;;;;0.80;0.80;;;;;;;-3.95;71.88;97471.44;4888993;29;20057;-88
2022/03/27 06:16:59;;;;;;;0.80;0.80;;;;;;;-3.65;70.44;97484.44;4888956;29;20048;-89
2022/03/27 06:19:53;;;;;;;0.80;0.80;;;;;;;-3.97;68.57;97476.91;4898634;29;20057;-88
2022/03/27 06:22:30;;;;;;;0.80;0.80;;;;;;;-4.03;68.14;97487.38;4908917;29;20056;-90
2022/03/27 06:24:58;;;;;;;0.70;0.70;;;;;;;-4.08;68.41;97487.94;4906768;29;20413;-91
2022/03/27 06:27:25;;;;;;;1.13;1.10;;;;;;;-4.07;67.17;97491.41;4914233;29;20025;-90
2022/03/27 06:29:53;;;;;;;0.80;0.80;;;;;;;-4.12;64.59;97499.88;4886563;29;20115;-88
2022/03/27 06:32:39;;;;;;;0.90;0.90;;;;;;;-4.17;62.86;97497.81;4854686;29;20054;-89
2022/03/27 06:35:07;;;;;;;0.90;0.90;;;;;;;-4.07;62.69;97491.41;4865255;29;20065;-90
2022/03/27 06:37:36;;;;;;;0.85;0.85;;;;;;;-4.05;61.96;97518.38;4848632;29;20054;-89
2022/03/27 06:40:14;;;;;;;1.00;1.00;;;;;;;-3.75;61.74;97513.78;4839516;29;20161;-92
2022/03/27 06:42:54;;;;;;;0.82;0.82;;;;;;;-3.96;60.90;97531.25;4860781;29;20079;-87
2022/03/27 06:45:26;;;;;;;0.60;0.60;;;;;;;-4.01;61.19;97538.91;4843818;29;20687;-90
2022/03/27 06:47:53;;;;;;;0.70;0.70;;;;;;;-3.87;61.00;97524.03;4859542;29;20072;-92
2022/03/27 06:50:22;;;;;;;0.68;0.68;;;;;;;-4.11;60.25;97543.66;4861472;29;20049;-89
2022/03/27 06:52:50;;;;;;;0.70;0.70;;;;;;;-3.80;59.95;97561.00;4856939;29;20214;-89
2022/03/27 06:55:21;;;;;;;0.80;0.80;;;;;;;-3.64;59.46;97573.94;4827449;29;20097;-90
2022/03/27 06:57:59;;;;;;;0.80;0.80;;;;;;;-4.01;58.34;97553.91;4853191;29;20049;-88
2022/03/27 07:03:16;;;;;;;1.13;1.13;;;;;;;-3.95;58.04;97580.34;4878478;29;20060;-85
2022/03/27 07:05:44;;;;;;;0.70;0.70;;;;;;;-3.78;58.70;97591.44;4907314;29;20111;-90
2022/03/27 07:08:16;;;;;;;0.75;0.75;;;;;;;-3.43;57.27;97580.19;4910169;29;20055;-86
2022/03/27 07:10:45;;;;;;;0.80;0.80;;;;;;;-3.17;56.97;97567.19;4899344;29;20058;-87
2022/03/27 07:13:14;;;;;;;0.90;0.90;;;;;;;-3.07;56.66;97574.78;4917635;29;20048;-90
2022/03/27 07:15:42;;;;;;;0.70;0.70;;;;;;;-2.95;57.16;97588.28;4902251;29;20418;-87
2022/03/27 07:18:11;;;;;;;0.77;0.77;;;;;;;-3.21;57.75;97591.53;4901973;29;20059;-90
2022/03/27 07:21:20;;;;;;;0.75;0.75;;;;;;;-3.52;58.91;97593.53;4909163;29;20053;-92
2022/03/27 07:24:06;;;;;;;1.00;1.00;;;;;;;-3.43;59.43;97596.03;4891424;29;20056;-90
2022/03/27 07:26:36;;;;;;;1.00;1.00;;;;;;;-3.30;58.69;97617.22;4852358;29;20489;-90
2022/03/27 07:29:04;;;;;;;0.90;0.90;;;;;;;-2.78;56.22;97618.66;4875541;29;20112;-89
2022/03/27 07:31:33;;;;;;;0.80;0.80;;;;;;;-2.79;53.52;97609.09;4866606;29;20139;-88
2022/03/27 07:34:01;;;;;;;0.80;0.80;;;;;;;-2.82;54.41;97633.25;4900624;29;20063;-90
2022/03/27 07:36:28;;;;;;;0.80;0.80;;;;;;;-3.03;52.61;97620.09;4899199;29;20056;-89
2022/03/27 07:38:55;;;;;;;1.13;1.13;;;;;;;-2.88;52.51;97624.28;4870046;29;20052;-87
2022/03/27 07:41:22;;;;;;;0.80;0.80;;;;;;;-2.58;51.90;97620.56;4904728;29;20583;-87
2022/03/27 07:43:50;;;;;;;0.80;0.80;;;;;;;-2.86;51.63;97631.97;4889988;29;20071;-87
2022/03/27 07:46:17;;;;;;;0.60;0.60;;;;;;;-2.75;52.54;97647.31;4899295;29;20056;-88
2022/03/27 07:48:46;;;;;;;0.73;0.73;;;;;;;-2.80;52.71;97652.34;4902934;29;20104;-91
2022/03/27 07:51:14;;;;;;;0.80;0.80;;;;;;;-3.10;51.43;97625.31;4863297;29;20188;-90
2022/03/27 07:53:46;;;;;;;0.73;0.73;;;;;;;-3.19;50.33;97648.41;4887104;29;20108;-90
2022/03/27 07:56:19;;;;;;;0.80;0.80;;;;;;;-3.54;49.74;97656.19;4883909;29;20056;-91
2022/03/27 07:59:04;;;;;;;0.80;0.80;;;;;;;-3.05;49.01;97638.75;4875631;29;20568;-91
2022/03/27 08:01:38;;;;;;;1.10;1.10;;;;;;;-2.63;48.17;97631.75;4860257;29;20061;-90
2022/03/27 08:04:08;;;;;;;0.90;0.90;;;;;;;-2.52;47.74;97643.59;4881281;29;20052;-90
2022/03/27 08:07:06;;;;;;;0.77;0.77;;;;;;;-2.51;47.74;97676.91;4853203;29;20060;-91
2022/03/27 08:09:52;;;;;;;0.70;0.70;;;;;;;-1.75;46.06;97677.72;4863258;29;20097;-89
2022/03/27 08:12:31;;;;;;;0.82;0.82;;;;;;;-2.06;46.59;97659.69;4819675;29;20055;-92
2022/03/27 08:15:14;;;;;;;0.70;0.70;;;;;;;-2.38;47.56;97686.75;4769942;30;20139;-89
2022/03/27 08:17:53;;;;;;;0.80;0.80;;;;;;;-2.81;50.96;97687.69;4764747;30;20051;-90
2022/03/27 08:20:35;;;;;;;0.77;0.77;;;;;;;-3.42;54.09;97664.41;4783932;29;20368;-89
2022/03/27 08:23:11;;;;;;;0.70;0.70;;;;;;;-3.05;55.12;97702.91;4796266;29;20059;-86
2022/03/27 08:28:33;;;;;;;0.70;0.70;;;;;;;-3.35;53.47;97696.13;4812192;29;20130;-90
2022/03/27 08:31:06;;;;;;;;;;;;;;;-3.42;53.71;97717.16;4790333;29;20506;-91
2022/03/27 08:33:33;;;;;;;1.00;1.00;;;;;;;-3.53;53.04;97707.94;4800538;29;20027;-88
2022/03/27 08:36:03;;;;;;;0.57;0.57;;;;;;;-3.73;53.58;97715.59;4814201;29;20086;-88
2022/03/27 08:38:39;;;;;;;0.60;0.60;;;;;;;-3.72;55.30;97754.19;4815601;29;20058;-86
2022/03/27 08:41:08;;;;;;;0.70;0.70;;;;;;;-3.97;57.23;97753.66;4819453;29;20122;-87
2022/03/27 08:43:36;;;;;;;0.73;0.73;;;;;;;-3.82;58.38;97732.56;4833279;29;20064;-91
2022/03/27 08:46:04;;;;;;;1.00;1.00;;;;;;;-3.72;58.38;97737.53;4896728;29;20048;-86
2022/03/27 08:48:39;;;;;;;0.90;0.90;;;;;;;-3.33;57.72;97750.34;4916491;29;20080;-88
2022/03/27 08:51:20;;;;;;;0.80;0.80;;;;;;;-2.69;56.03;97754.00;4923612;29;20112;-89
2022/03/27 08:54:19;;;;;;;0.98;0.98;;;;;;;-2.04;53.90;97754.69;4919885;29;20075;-90
2022/03/27 08:57:16;;;;;;;0.90;0.90;;;;;;;-2.78;54.33;97726.13;4624955;23;10001850;-93
2022/03/27 09:04:05;;;;;;;0.90;0.90;;;;;;;-3.18;56.66;97770.59;4986516;23;20091;-89
2022/03/27 09:06:37;;;;;;;0.88;0.88;;;;;;;-3.21;56.61;97755.97;4843037;29;20101;-90
2022/03/27 09:09:39;;;;;;;0.80;0.80;;;;;;;-3.39;56.17;97781.94;4909334;23;20094;-92
2022/03/27 09:17:00;;;;;;;0.88;0.88;;;;;;;-1.98;54.56;97789.06;4887504;23;20064;-92
2022/03/27 09:19:51;;;;;;;0.80;0.80;;;;;;;-2.20;53.18;97801.56;4840438;29;20057;-90
2022/03/27 09:22:41;;;;;;;0.80;0.80;;;;;;;-2.27;53.53;97805.16;4823384;29;20053;-91
2022/03/27 09:25:20;;;;;;;0.80;0.80;;;;;;;-2.27;52.77;97805.97;5062200;23;20060;-91
2022/03/27 09:31:35;;;;;;;0.73;0.73;;;;;;;-2.48;54.30;97792.78;4600660;27;20055;-89
2022/03/27 09:34:04;;;;;;;0.80;0.80;;;;;;;-2.60;52.12;97815.47;4876624;29;20077;-89
2022/03/27 09:36:46;;;;;;;0.90;0.90;;;;;;;-2.69;52.75;97818.19;5033922;23;20026;-89
2022/03/27 09:39:30;;;;;;;0.80;0.80;;;;;;;-2.17;51.48;97805.63;4883292;29;20045;-88
2022/03/27 09:42:01;;;;;;;1.30;1.20;;;;;;;-1.11;50.44;97829.19;4857876;29;20049;-90
2022/03/27 09:44:28;;;;;;;1.00;1.00;;;;;;;0.48;47.67;97817.84;4857655;29;20052;-90
2022/03/27 09:47:07;;;;;;;0.95;0.95;;;;;;;1.24;46.55;97811.78;4878317;29;20041;-88
2022/03/27 09:49:46;;;;;;;0.90;0.90;;;;;;;0.88;44.99;97830.13;4864730;29;20068;-90
2022/03/27 09:52:24;;;;;;;0.73;0.73;;;;;;;-1.15;48.79;97835.91;4885656;29;20036;-89
2022/03/27 09:55:00;;;;;;;4.18;1.10;;;;;;;-2.14;53.91;97810.53;4885735;29;20152;-86
2022/03/27 09:57:31;;;;;;;1.00;1.00;;;;;;;-2.40;56.45;97904.44;4885812;29;20061;-87
2022/03/27 10:00:26;;;;;;;0.73;0.73;;;;;;;-2.38;57.24;97856.72;4871277;23;20312;-89
2022/03/27 10:03:09;;;;;;;;;;;;;;;-0.76;51.26;97861.72;4877069;29;20043;-90
2022/03/27 10:05:40;;;;;;;1.27;1.20;;;;;;;1.00;46.79;97834.56;4907726;29;19933;-87
2022/03/27 10:08:08;;;;;;;1.00;1.00;;;;;;;1.28;43.45;97844.84;4920584;29;20056;-89
2022/03/27 10:10:36;;;;;;;0.75;0.75;;;;;;;-0.78;47.99;97855.78;4875520;29;20557;-89
2022/03/27 10:13:16;;;;;;;0.70;0.70;;;;;;;-1.80;51.55;97860.00;4892557;29;20052;-89
2022/03/27 10:15:45;;;;;;;0.70;0.70;;;;;;;-2.65;55.74;97887.34;4912469;29;20052;-91
2022/03/27 10:18:58;;;;;;;1.00;1.00;;;;;;;-3.01;59.27;97868.84;4903871;29;20048;-90
2022/03/27 10:21:48;;;;;;;0.90;0.90;;;;;;;-2.12;57.31;97881.72;4822431;29;20054;-89
2022/03/27 10:24:21;;;;;;;0.90;0.90;;;;;;;-1.08;55.24;97891.53;4831823;29;20152;-90
2022/03/27 10:26:49;;;;;;;0.80;0.80;;;;;;;-1.21;52.34;97913.47;4835362;29;20098;-89
2022/03/27 10:29:19;;;;;;;0.70;0.70;;;;;;;-1.23;52.05;97918.16;4853355;29;20061;-87
2022/03/27 10:32:10;;;;;;;0.90;0.90;;;;;;;-1.93;54.15;97891.63;4851404;29;20030;-90
2022/03/27 10:35:43;;;;;;;1.08;1.08;;;;;;;0.16;48.46;97885.88;4835188;29;20114;-89
2022/03/27 10:38:40;;;;;;;0.98;0.98;;;;;;;0.55;46.57;97908.06;4781008;30;20067;-86
2022/03/27 10:41:27;;;;;;;1.48;1.38;;;;;;;0.29;45.61;97896.47;4773735;30;20518;-85
2022/03/27 10:44:06;;;;;;;0.82;0.82;;;;;;;-0.32;47.09;97910.72;4771157;30;20073;-88
2022/03/27 10:46:37;;;;;;;0.90;0.90;;;;;;;-0.70;47.47;97924.50;4786226;30;20059;-86
2022/03/27 10:49:16;;;;;;;1.00;1.00;;;;;;;-0.59;48.38;97948.78;4778802;30;20201;-89
2022/03/27 10:51:46;;;;;;;0.88;0.88;;;;;;;-0.29;48.16;97914.81;4766110;30;20534;-87
2022/03/27 10:54:28;;;;;;;0.80;0.80;;;;;;;-0.57;49.05;97928.19;4763811;30;20070;-92
2022/03/27 10:57:04;;;;;;;0.95;0.95;;;;;;;-1.15;48.63;97925.91;4762332;30;20644;-88
2022/03/27 10:59:42;;;;;;;0.90;0.90;;;;;;;-0.56;48.45;97914.72;4763819;30;20067;-88
2022/03/27 11:02:41;;;;;;;1.00;1.00;;;;;;;-0.35;46.97;97956.19;4789220;29;20088;-87
2022/03/27 11:05:51;;;;;;;1.05;1.05;;;;;;;-0.65;47.71;97968.94;4907917;23;20084;-87
2022/03/27 11:08:19;;;;;;;0.90;0.90;;;;;;;-0.54;48.02;97960.41;4894957;29;20077;-86
2022/03/27 11:10:59;;;;;;;1.00;1.00;;;;;;;-0.04;46.95;97945.03;4887579;29;20078;-89
2022/03/27 11:13:45;;;;;;;1.00;1.00;;;;;;;-0.05;46.86;97958.47;4834588;29;20073;-89
2022/03/27 11:16:14;;;;;;;0.98;0.98;;;;;;;-0.69;47.85;97975.66;4824300;29;20065;-91
2022/03/27 11:18:49;;;;;;;0.90;0.90;;;;;;;-1.70;49.95;97954.06;4833711;29;20058;-89
2022/03/27 11:21:28;;;;;;;0.85;0.85;;;;;;;-1.57;51.34;97992.03;4824994;29;20053;-90
2022/03/27 11:24:07;;;;;;;1.17;1.17;;;;;;;-1.81;50.09;98003.81;4832693;29;20066;-90
2022/03/27 11:26:37;;;;;;;1.00;1.00;;;;;;;-2.10;50.42;97985.44;4850500;29;20069;-90
2022/03/27 11:29:22;;;;;;;0.95;0.95;;;;;;;-2.15;50.56;97971.97;4795462;30;20067;-89
2022/03/27 11:32:11;;;;;;;1.00;1.00;;;;;;;-2.05;50.89;97993.63;4789705;30;20656;-89
2022/03/27 11:34:40;;;;;;;0.85;0.85;;;;;;;-1.16;49.96;98011.69;4760763;30;20088;-88
2022/03/27 11:37:25;;;;;;;0.80;0.80;;;;;;;-0.27;47.41;97981.72;4760727;30;20516;-89
2022/03/27 11:40:39;;;;;;;0.95;0.95;;;;;;;-0.63;46.77;98035.81;4763164;30;20062;-89
2022/03/27 11:43:30;;;;;;;1.00;1.00;;;;;;;-0.70;46.87;98019.88;4785954;30;20060;-90
2022/03/27 11:46:05;;;;;;;0.70;0.70;;;;;;;-0.94;46.70;98021.19;4821327;29;20050;-90
2022/03/27 11:48:37;;;;;;;0.80;0.80;;;;;;;-1.03;47.01;98030.28;4785795;30;20095;-89
2022/03/27 11:51:29;;;;;;;0.93;0.93;;;;;;;-0.55;45.32;98035.66;4794840;30;20060;-88
2022/03/27 11:54:00;;;;;;;0.90;0.90;;;;;;;-0.19;44.26;98034.56;4791401;30;20051;-89
2022/03/27 11:56:30;;;;;;;1.42;1.33;;;;;;;-0.28;43.68;98001.28;4793497;30;20078;-90
2022/03/27 11:59:08;;;;;;;0.95;0.95;;;;;;;-0.75;43.69;98038.19;4763993;30;20063;-91
2022/03/27 12:01:40;;;;;;;0.60;0.60;;;;;;;-1.93;46.71;98060.06;4828339;29;20046;-90
2022/03/27 12:04:14;;;;;;;0.70;0.70;;;;;;;-2.73;47.56;97995.75;4813782;29;20083;-89
2022/03/27 12:06:43;;;;;;;0.70;0.70;;;;;;;-2.52;48.65;98053.91;4847406;29;20144;-88
2022/03/27 12:09:31;;;;;;;0.80;0.80;;;;;;;-2.56;49.29;98065.84;4819442;29;20082;-88
2022/03/27 12:12:19;;;;;;;0.70;0.70;;;;;;;-2.58;48.24;98080.22;4839950;29;20053;-89
2022/03/27 12:15:04;;;;;;;0.70;0.70;;;;;;;-2.44;48.41;98074.13;4849317;29;20104;-89
2022/03/27 12:17:33;;;;;;;0.90;0.90;;;;;;;-2.17;47.81;98072.63;4829476;29;20045;-89
2022/03/27 12:20:04;;;;;;;0.60;0.60;;;;;;;-2.27;47.82;98086.13;4795447;29;20086;-88
2022/03/27 12:22:39;;;;;;;0.65;0.65;;;;;;;-2.30;47.31;98088.34;4811146;29;20057;-89